Time;durP1;ratioP1;P1;durP2;ratioP2;P2;SDS_P1;SDS_P2;PMS_P1;PMS_P2;Temp;Humidity;BMP_temperature;BMP_pressure;BME280_temperature;BME280_humidity;BME280_pressure;Samples;Min_cycle;Max_cycle;Signal;HPM_P1;HPM_P2
2024/02/19 00:00:27;;;;;;;14.90;9.20;;;;;;;;;;103799;1293;545359;-70
2024/02/19 00:04:08;;;;;;;15.20;9.90;;;;;;;;;;103953;1289;545142;-72
2024/02/19 00:07:46;;;;;;;16.70;11.00;;;;;;;;;;104109;1285;545800;-72
2024/02/19 00:11:22;;;;;;;15.30;10.30;;;;;;;;;;103718;1296;544767;-72
2024/02/19 00:15:00;;;;;;;17.00;10.40;;;;;;;;;;104135;1287;544741;-72
2024/02/19 00:18:38;;;;;;;17.30;10.30;;;;;;;;;;103671;1291;545736;-72
2024/02/19 00:22:15;;;;;;;15.50;9.50;;;;;;;;;;103885;1289;545949;-72
2024/02/19 00:25:53;;;;;;;15.30;9.70;;;;;;;;;;103834;1289;544816;-72
2024/02/19 00:29:30;;;;;;;14.80;10.20;;;;;;;;;;103658;1290;545741;-72
2024/02/19 00:33:08;;;;;;;14.70;10.00;;;;;;;;;;103799;1292;545454;-72
2024/02/19 00:36:45;;;;;;;15.30;9.80;;;;;;;;;;103765;1291;547066;-72
2024/02/19 00:40:22;;;;;;;15.70;9.30;;;;;;;;;;103783;1293;545814;-72
2024/02/19 00:43:56;;;;;;;15.50;9.70;;;;;;;;;;103812;1292;545536;-72
2024/02/19 00:47:37;;;;;;;14.90;8.80;;;;;;;;;;104033;1287;544889;-72
2024/02/19 00:51:15;;;;;;;14.20;10.00;;;;;;;;;;103444;1297;544809;-72
2024/02/19 00:54:52;;;;;;;13.20;9.10;;;;;;;;;;103849;1289;545326;-72
2024/02/19 00:58:30;;;;;;;11.70;8.00;;;;;;;;;;103755;1291;545002;-72
2024/02/19 01:02:08;;;;;;;13.90;8.70;;;;;;;;;;103726;1293;545618;-72
2024/02/19 01:05:45;;;;;;;13.30;9.20;;;;;;;;;;103689;1294;545002;-72
2024/02/19 01:09:22;;;;;;;13.70;9.50;;;;;;;;;;103837;1292;544698;-72
2024/02/19 01:13:00;;;;;;;12.80;9.30;;;;;;;;;;103834;1288;546005;-72
2024/02/19 01:16:37;;;;;;;12.40;8.70;;;;;;;;;;103728;1292;545269;-73
2024/02/19 01:20:15;;;;;;;12.90;9.20;;;;;;;;;;103734;1292;544944;-72
2024/02/19 01:23:53;;;;;;;13.00;9.10;;;;;;;;;;103813;1295;544793;-72
2024/02/19 01:27:30;;;;;;;12.70;9.30;;;;;;;;;;103937;1289;544764;-72
2024/02/19 01:31:09;;;;;;;13.50;9.60;;;;;;;;;;103794;1301;545033;-71
2024/02/19 01:34:45;;;;;;;14.60;9.30;;;;;;;;;;103806;1289;544754;-71
2024/02/19 01:38:22;;;;;;;12.20;8.90;;;;;;;;;;103787;1290;545130;-72
2024/02/19 01:42:00;;;;;;;13.00;9.30;;;;;;;;;;103995;1289;544895;-73
2024/02/19 01:45:38;;;;;;;13.80;9.00;;;;;;;;;;103787;1289;544980;-72
2024/02/19 01:49:15;;;;;;;11.60;8.40;;;;;;;;;;104113;1285;544958;-72
2024/02/19 01:52:54;;;;;;;12.20;8.90;;;;;;;;;;103884;1289;544972;-73
2024/02/19 01:56:30;;;;;;;11.90;8.40;;;;;;;;;;103764;1295;544841;-72
2024/02/19 02:00:08;;;;;;;12.40;7.70;;;;;;;;;;103825;1289;544953;-72
2024/02/19 02:03:45;;;;;;;11.40;7.30;;;;;;;;;;103849;1289;544939;-72
2024/02/19 02:07:22;;;;;;;12.00;8.00;;;;;;;;;;103681;1289;544857;-72
2024/02/19 02:10:59;;;;;;;12.30;7.20;;;;;;;;;;103576;1289;545883;-72
2024/02/19 02:14:37;;;;;;;12.00;8.30;;;;;;;;;;103666;1292;545315;-73
2024/02/19 02:18:15;;;;;;;11.70;7.90;;;;;;;;;;103602;1292;545408;-72
2024/02/19 02:21:52;;;;;;;10.90;7.00;;;;;;;;;;103702;1292;544784;-71
2024/02/19 02:25:29;;;;;;;10.60;6.70;;;;;;;;;;104424;1283;545721;-72
2024/02/19 02:29:03;;;;;;;10.10;6.80;;;;;;;;;;103739;1288;544941;-71
2024/02/19 02:32:44;;;;;;;11.70;7.80;;;;;;;;;;103702;1289;544896;-72
2024/02/19 02:36:22;;;;;;;10.70;7.30;;;;;;;;;;103520;1294;545944;-72
2024/02/19 02:39:59;;;;;;;10.60;6.60;;;;;;;;;;103689;1291;545355;-72
2024/02/19 02:43:37;;;;;;;10.40;6.90;;;;;;;;;;104046;1286;544846;-72
2024/02/19 02:47:14;;;;;;;10.30;7.20;;;;;;;;;;103711;1296;545516;-72
2024/02/19 02:50:50;;;;;;;10.00;6.80;;;;;;;;;;103797;1292;545190;-72
2024/02/19 02:54:29;;;;;;;10.20;6.60;;;;;;;;;;103766;1289;545629;-72
2024/02/19 02:58:06;;;;;;;10.80;6.20;;;;;;;;;;103786;1289;545750;-72
2024/02/19 03:01:44;;;;;;;9.10;5.60;;;;;;;;;;103623;1293;544988;-72
2024/02/19 03:05:17;;;;;;;8.80;5.70;;;;;;;;;;103882;1289;545003;-72
2024/02/19 03:08:59;;;;;;;8.80;5.60;;;;;;;;;;103651;1291;545058;-72
2024/02/19 03:12:36;;;;;;;9.30;5.10;;;;;;;;;;103828;1292;544937;-72
2024/02/19 03:16:16;;;;;;;7.90;4.80;;;;;;;;;;103793;1295;545057;-72
2024/02/19 03:19:51;;;;;;;7.90;4.50;;;;;;;;;;103725;1291;545741;-72
2024/02/19 03:23:28;;;;;;;8.20;4.70;;;;;;;;;;103646;1295;544987;-72
2024/02/19 03:27:06;;;;;;;7.60;4.50;;;;;;;;;;103821;1289;545371;-72
2024/02/19 03:30:44;;;;;;;8.10;4.60;;;;;;;;;;103751;1291;545230;-72
2024/02/19 03:34:21;;;;;;;8.00;4.00;;;;;;;;;;103644;1289;545095;-72
2024/02/19 03:37:58;;;;;;;7.60;3.80;;;;;;;;;;103673;1292;546284;-72
2024/02/19 03:41:35;;;;;;;7.20;3.80;;;;;;;;;;103763;1292;545467;-72
2024/02/19 03:45:13;;;;;;;6.70;3.50;;;;;;;;;;103684;1295;546403;-72
2024/02/19 03:48:51;;;;;;;6.50;3.30;;;;;;;;;;103818;1289;544977;-72
2024/02/19 03:52:29;;;;;;;6.40;3.30;;;;;;;;;;103622;1295;545024;-72
2024/02/19 03:56:07;;;;;;;7.20;3.90;;;;;;;;;;103687;1289;544902;-71
2024/02/19 03:59:43;;;;;;;6.40;3.30;;;;;;;;;;103703;1294;544843;-72
2024/02/19 04:03:20;;;;;;;7.20;4.00;;;;;;;;;;103769;1295;544996;-72
2024/02/19 04:06:58;;;;;;;6.40;3.20;;;;;;;;;;103727;1289;544919;-72
2024/02/19 04:10:35;;;;;;;6.10;3.10;;;;;;;;;;103942;1289;545209;-72
2024/02/19 04:14:13;;;;;;;6.80;3.10;;;;;;;;;;103908;1288;544970;-72
2024/02/19 04:17:51;;;;;;;7.70;3.70;;;;;;;;;;103766;1289;544944;-72
2024/02/19 04:21:29;;;;;;;6.90;3.40;;;;;;;;;;103607;1291;545655;-72
2024/02/19 04:25:06;;;;;;;6.80;3.10;;;;;;;;;;103805;1289;545662;-72
2024/02/19 04:28:43;;;;;;;6.40;3.00;;;;;;;;;;103655;1291;544782;-71
2024/02/19 04:32:20;;;;;;;6.60;2.80;;;;;;;;;;103811;1294;544954;-72
2024/02/19 04:35:58;;;;;;;6.10;2.80;;;;;;;;;;103753;1291;544992;-72
2024/02/19 04:39:35;;;;;;;5.10;2.40;;;;;;;;;;103787;1289;544817;-72
2024/02/19 04:43:13;;;;;;;4.60;2.00;;;;;;;;;;103653;1291;544941;-72
2024/02/19 04:46:50;;;;;;;4.00;1.90;;;;;;;;;;103810;1295;545237;-72
2024/02/19 04:50:29;;;;;;;4.90;1.90;;;;;;;;;;103870;1288;545202;-72
2024/02/19 04:54:05;;;;;;;3.30;1.50;;;;;;;;;;103867;1289;544865;-72
2024/02/19 04:57:43;;;;;;;3.80;1.50;;;;;;;;;;103622;1292;545890;-72
2024/02/19 05:01:20;;;;;;;3.40;1.40;;;;;;;;;;103720;1291;545003;-72
2024/02/19 05:04:58;;;;;;;3.60;1.60;;;;;;;;;;103820;1289;544990;-72
2024/02/19 05:08:34;;;;;;;3.60;1.60;;;;;;;;;;103794;1289;544916;-72
2024/02/19 05:12:13;;;;;;;3.20;1.20;;;;;;;;;;103899;1287;544983;-72
2024/02/19 05:15:50;;;;;;;3.10;1.50;;;;;;;;;;103842;1290;544976;-73
2024/02/19 05:19:24;;;;;;;3.00;1.60;;;;;;;;;;103761;1288;545733;-72
2024/02/19 05:23:04;;;;;;;3.50;1.60;;;;;;;;;;103804;1292;544989;-73
2024/02/19 05:26:42;;;;;;;3.10;1.30;;;;;;;;;;103809;1290;545334;-72
2024/02/19 05:30:22;;;;;;;4.70;1.70;;;;;;;;;;103770;1289;545041;-71
2024/02/19 05:33:58;;;;;;;3.20;1.60;;;;;;;;;;103805;1301;545875;-73
2024/02/19 05:37:35;;;;;;;5.10;1.80;;;;;;;;;;103817;1289;544858;-73
2024/02/19 05:41:13;;;;;;;4.10;1.80;;;;;;;;;;103700;1291;545046;-73
2024/02/19 05:44:49;;;;;;;4.50;1.80;;;;;;;;;;103735;1289;545293;-72
2024/02/19 05:48:27;;;;;;;4.10;1.60;;;;;;;;;;103756;1289;545421;-73
2024/02/19 05:52:04;;;;;;;4.30;2.00;;;;;;;;;;103814;1289;545570;-73
2024/02/19 05:55:38;;;;;;;4.70;2.10;;;;;;;;;;103868;1292;544825;-73
2024/02/19 05:59:18;;;;;;;4.70;2.00;;;;;;;;;;103719;1292;545027;-72
2024/02/19 06:03:03;;;;;;;5.00;2.20;;;;;;;;;;103809;1302;545151;-72
2024/02/19 06:06:31;;;;;;;5.90;2.50;;;;;;;;;;103732;1288;545073;-70
2024/02/19 06:10:12;;;;;;;5.20;2.10;;;;;;;;;;103798;1289;545882;-72
2024/02/19 06:13:49;;;;;;;6.10;2.70;;;;;;;;;;103618;1294;545439;-73
2024/02/19 06:17:27;;;;;;;6.40;3.10;;;;;;;;;;103824;1289;546027;-73
2024/02/19 06:21:04;;;;;;;6.90;3.00;;;;;;;;;;103589;1289;544571;-73
2024/02/19 06:24:43;;;;;;;7.90;4.10;;;;;;;;;;103684;1289;545539;-72
2024/02/19 06:28:20;;;;;;;6.50;3.00;;;;;;;;;;103815;1289;544869;-73
2024/02/19 06:31:56;;;;;;;7.20;3.50;;;;;;;;;;103662;1291;544903;-73
2024/02/19 06:35:30;;;;;;;8.20;3.80;;;;;;;;;;103744;1288;545496;-72
2024/02/19 06:39:12;;;;;;;12.20;5.90;;;;;;;;;;103838;1290;544813;-72
2024/02/19 06:42:49;;;;;;;17.40;7.90;;;;;;;;;;103835;1292;544870;-72
2024/02/19 06:46:27;;;;;;;11.70;4.80;;;;;;;;;;103849;1291;544925;-72
2024/02/19 06:50:00;;;;;;;27.60;10.60;;;;;;;;;;103808;1289;545033;-72
2024/02/19 06:53:41;;;;;;;35.90;14.40;;;;;;;;;;103879;1293;545713;-72
2024/02/19 06:57:18;;;;;;;23.70;12.40;;;;;;;;;;104615;1282;544824;-72
2024/02/19 07:00:56;;;;;;;11.80;6.50;;;;;;;;;;103870;1290;545961;-72
2024/02/19 07:04:35;;;;;;;8.80;3.70;;;;;;;;;;103738;1290;544788;-72
2024/02/19 07:08:13;;;;;;;7.40;3.00;;;;;;;;;;103842;1296;544776;-72
2024/02/19 07:11:48;;;;;;;8.40;3.50;;;;;;;;;;103723;1289;545085;-72
2024/02/19 07:15:26;;;;;;;9.70;4.40;;;;;;;;;;103845;1289;544962;-72
2024/02/19 07:19:03;;;;;;;12.30;7.60;;;;;;;;;;103730;1289;545003;-72
2024/02/19 07:22:41;;;;;;;11.30;6.40;;;;;;;;;;103772;1290;544931;-72
2024/02/19 07:26:18;;;;;;;7.80;3.50;;;;;;;;;;103620;1292;545426;-72
2024/02/19 07:29:56;;;;;;;8.60;2.90;;;;;;;;;;103648;1291;545056;-72
2024/02/19 07:33:29;;;;;;;7.10;2.70;;;;;;;;;;103753;1294;545038;-72
2024/02/19 07:37:11;;;;;;;7.40;2.90;;;;;;;;;;103782;1292;544825;-72
2024/02/19 07:40:48;;;;;;;7.20;2.80;;;;;;;;;;103627;1292;544731;-72
2024/02/19 07:44:26;;;;;;;7.20;2.60;;;;;;;;;;103757;1298;545059;-73
2024/02/19 07:48:06;;;;;;;4.90;2.20;;;;;;;;;;103763;1292;545081;-72
2024/02/19 07:51:40;;;;;;;8.20;3.10;;;;;;;;;;103828;1289;544659;-72
2024/02/19 07:55:18;;;;;;;10.40;2.60;;;;;;;;;;103549;1292;546416;-72
2024/02/19 07:59:15;;;;;;;6.80;2.50;;;;;;;;;;103714;1292;547934;-73
2024/02/19 08:02:33;;;;;;;7.70;2.80;;;;;;;;;;103591;1292;545442;-73
2024/02/19 08:06:10;;;;;;;10.60;4.00;;;;;;;;;;103999;1289;544743;-73
2024/02/19 08:09:48;;;;;;;7.00;2.90;;;;;;;;;;103505;1291;544830;-72
2024/02/19 08:13:25;;;;;;;6.50;2.70;;;;;;;;;;103687;1289;545523;-72
2024/02/19 08:16:58;;;;;;;9.60;2.90;;;;;;;;;;103853;1292;544855;-72
2024/02/19 08:20:40;;;;;;;10.30;3.90;;;;;;;;;;103843;1289;545546;-72
2024/02/19 08:24:18;;;;;;;15.20;5.70;;;;;;;;;;103781;1292;545820;-72
2024/02/19 08:27:55;;;;;;;10.00;4.00;;;;;;;;;;103699;1292;545808;-72
2024/02/19 08:31:52;;;;;;;8.10;2.80;;;;;;;;;;103571;1294;546777;-72
2024/02/19 08:35:30;;;;;;;6.40;2.00;;;;;;;;;;103763;1290;548073;-68
2024/02/19 08:38:55;;;;;;;7.40;1.90;;;;;;;;;;103558;1295;544841;-72
2024/02/19 08:42:25;;;;;;;5.90;1.30;;;;;;;;;;103796;1289;544871;-71
2024/02/19 08:46:03;;;;;;;5.90;1.70;;;;;;;;;;103518;1293;545052;-71
2024/02/19 08:49:40;;;;;;;6.40;1.70;;;;;;;;;;103785;1289;544757;-72
2024/02/19 08:53:19;;;;;;;5.30;1.50;;;;;;;;;;103768;1291;545502;-72
2024/02/19 08:56:55;;;;;;;4.80;1.30;;;;;;;;;;103791;1289;544950;-72
2024/02/19 09:00:33;;;;;;;4.60;1.20;;;;;;;;;;103628;1291;545330;-72
2024/02/19 09:04:10;;;;;;;3.70;1.00;;;;;;;;;;103746;1292;545029;-72
2024/02/19 09:07:48;;;;;;;5.30;1.30;;;;;;;;;;103729;1297;545783;-71
2024/02/19 09:11:25;;;;;;;3.90;1.00;;;;;;;;;;104102;1285;546249;-73
2024/02/19 09:15:04;;;;;;;4.40;1.10;;;;;;;;;;103434;1295;544860;-72
2024/02/19 09:18:39;;;;;;;4.20;1.00;;;;;;;;;;103791;1289;545248;-73
2024/02/19 09:22:17;;;;;;;3.10;0.90;;;;;;;;;;103725;1289;546092;-72
2024/02/19 09:25:55;;;;;;;4.10;1.10;;;;;;;;;;103748;1292;545754;-71
2024/02/19 09:29:32;;;;;;;3.70;0.90;;;;;;;;;;103597;1295;545753;-72
2024/02/19 09:33:10;;;;;;;3.60;1.00;;;;;;;;;;103712;1291;545741;-70
2024/02/19 09:36:47;;;;;;;5.80;1.30;;;;;;;;;;103643;1292;545089;-71
2024/02/19 09:40:30;;;;;;;6.80;1.70;;;;;;;;;;103802;1296;545442;-73
2024/02/19 09:44:02;;;;;;;3.10;0.80;;;;;;;;;;103588;1291;544937;-72
2024/02/19 09:47:43;;;;;;;4.20;1.10;;;;;;;;;;103821;1289;544851;-72
2024/02/19 09:51:21;;;;;;;3.70;1.00;;;;;;;;;;103722;1292;544781;-72
2024/02/19 09:54:55;;;;;;;3.80;1.10;;;;;;;;;;103787;1292;544974;-72
2024/02/19 09:58:32;;;;;;;4.00;0.90;;;;;;;;;;103657;1291;546501;-72
2024/02/19 10:02:11;;;;;;;1.90;0.60;;;;;;;;;;103819;1290;545529;-72
2024/02/19 10:05:47;;;;;;;2.20;0.90;;;;;;;;;;103605;1304;545512;-72
2024/02/19 10:09:25;;;;;;;6.50;1.10;;;;;;;;;;103809;1289;544830;-72
2024/02/19 10:13:02;;;;;;;2.20;0.80;;;;;;;;;;103615;1291;545041;-72
2024/02/19 10:16:39;;;;;;;2.60;0.80;;;;;;;;;;103837;1293;545842;-72
2024/02/19 10:20:18;;;;;;;2.90;0.90;;;;;;;;;;103621;1290;545250;-71
2024/02/19 10:23:54;;;;;;;3.50;0.90;;;;;;;;;;103753;1289;545047;-72
2024/02/19 10:27:33;;;;;;;3.70;0.70;;;;;;;;;;103587;1295;544929;-72
2024/02/19 10:31:09;;;;;;;3.30;0.80;;;;;;;;;;103809;1289;545427;-71
2024/02/19 10:34:46;;;;;;;4.70;1.50;;;;;;;;;;103592;1291;544754;-69
2024/02/19 10:38:24;;;;;;;4.10;1.20;;;;;;;;;;103575;1290;545041;-73
2024/02/19 10:42:02;;;;;;;9.10;2.30;;;;;;;;;;103700;1291;544767;-72
2024/02/19 10:45:38;;;;;;;7.00;1.80;;;;;;;;;;103831;1292;544742;-72
2024/02/19 10:49:19;;;;;;;8.20;2.00;;;;;;;;;;103460;1291;545480;-72
2024/02/19 10:52:53;;;;;;;11.00;3.60;;;;;;;;;;103808;1290;545568;-72
2024/02/19 10:56:35;;;;;;;5.00;1.50;;;;;;;;;;103682;1298;544812;-72
2024/02/19 11:00:10;;;;;;;6.30;1.50;;;;;;;;;;103763;1291;546511;-72
2024/02/19 11:03:46;;;;;;;6.30;1.60;;;;;;;;;;103701;1289;545730;-72
2024/02/19 11:07:21;;;;;;;2.90;0.90;;;;;;;;;;103809;1292;545787;-73
2024/02/19 11:11:03;;;;;;;3.80;1.00;;;;;;;;;;103748;1292;545810;-73
2024/02/19 11:14:42;;;;;;;6.80;2.20;;;;;;;;;;103765;1289;544705;-73
2024/02/19 11:18:16;;;;;;;5.20;1.40;;;;;;;;;;103597;1295;545053;-73
2024/02/19 11:22:00;;;;;;;5.30;1.50;;;;;;;;;;103680;1294;544987;-71
2024/02/19 11:25:31;;;;;;;7.30;2.30;;;;;;;;;;103862;1288;544860;-72
2024/02/19 11:29:15;;;;;;;4.10;1.00;;;;;;;;;;103850;1289;545236;-73
2024/02/19 11:32:46;;;;;;;6.50;1.70;;;;;;;;;;103785;1288;544946;-73
2024/02/19 11:36:24;;;;;;;5.00;1.20;;;;;;;;;;103795;1288;545695;-71
2024/02/19 11:40:00;;;;;;;7.30;1.90;;;;;;;;;;103572;1290;544798;-72
2024/02/19 11:43:38;;;;;;;5.90;1.90;;;;;;;;;;103804;1289;545136;-72
2024/02/19 11:47:13;;;;;;;16.30;4.50;;;;;;;;;;103798;1301;545042;-70
2024/02/19 11:50:53;;;;;;;8.80;2.40;;;;;;;;;;103717;1291;545101;-72
2024/02/19 11:54:30;;;;;;;22.60;6.70;;;;;;;;;;103754;1292;546339;-73
2024/02/19 11:58:08;;;;;;;5.70;1.80;;;;;;;;;;103722;1289;545503;-72
2024/02/19 12:01:51;;;;;;;11.90;3.70;;;;;;;;;;103755;1291;545484;-71
2024/02/19 12:05:23;;;;;;;18.30;5.40;;;;;;;;;;103766;1289;545512;-72
2024/02/19 12:09:00;;;;;;;6.60;2.30;;;;;;;;;;103794;1289;545119;-70
2024/02/19 12:12:38;;;;;;;10.70;3.70;;;;;;;;;;103999;1289;544971;-71
2024/02/19 12:16:17;;;;;;;11.10;6.10;;;;;;;;;;103641;1296;544839;-71
2024/02/19 12:19:53;;;;;;;8.80;3.40;;;;;;;;;;103706;1296;545541;-71
2024/02/19 12:23:30;;;;;;;7.50;2.40;;;;;;;;;;103757;1289;545855;-70
2024/02/19 12:27:08;;;;;;;9.50;2.70;;;;;;;;;;103627;1301;544751;-70
2024/02/19 12:30:41;;;;;;;6.70;2.00;;;;;;;;;;103673;1288;544945;-70
2024/02/19 12:34:23;;;;;;;10.20;3.40;;;;;;;;;;103675;1293;545044;-71
2024/02/19 12:38:01;;;;;;;6.30;1.70;;;;;;;;;;103886;1289;544999;-70
2024/02/19 12:41:38;;;;;;;4.40;1.50;;;;;;;;;;103799;1292;544704;-71
2024/02/19 12:45:17;;;;;;;3.00;1.00;;;;;;;;;;103533;1295;544988;-71
2024/02/19 12:48:55;;;;;;;5.40;1.60;;;;;;;;;;103827;1289;545932;-71
2024/02/19 12:52:32;;;;;;;5.50;2.10;;;;;;;;;;103626;1292;545611;-71
2024/02/19 12:56:07;;;;;;;5.30;1.50;;;;;;;;;;103862;1292;544942;-70
2024/02/19 12:59:45;;;;;;;6.10;2.10;;;;;;;;;;103594;1289;545145;-71
2024/02/19 13:03:24;;;;;;;5.20;1.60;;;;;;;;;;103585;1291;545462;-71
2024/02/19 13:07:00;;;;;;;4.40;1.30;;;;;;;;;;103640;1292;546013;-71
2024/02/19 13:10:38;;;;;;;3.60;1.20;;;;;;;;;;103522;1289;544944;-71
2024/02/19 13:14:11;;;;;;;4.40;2.00;;;;;;;;;;103632;1289;544914;-71
2024/02/19 13:17:52;;;;;;;5.40;1.90;;;;;;;;;;103590;1289;544624;-72
2024/02/19 13:21:30;;;;;;;12.00;7.50;;;;;;;;;;103572;1289;544812;-70
2024/02/19 13:25:08;;;;;;;8.30;3.90;;;;;;;;;;103667;1288;545037;-71
2024/02/19 13:28:44;;;;;;;11.50;4.70;;;;;;;;;;103532;1292;545055;-70
2024/02/19 13:32:22;;;;;;;8.70;2.80;;;;;;;;;;103243;1294;545365;-70
2024/02/19 13:36:00;;;;;;;10.70;3.50;;;;;;;;;;103686;1297;544844;-71
2024/02/19 13:39:37;;;;;;;7.30;2.60;;;;;;;;;;103570;1292;544929;-72
2024/02/19 13:43:15;;;;;;;15.90;7.30;;;;;;;;;;103556;1291;545736;-72
2024/02/19 13:46:53;;;;;;;8.00;3.10;;;;;;;;;;103667;1295;545148;-72
2024/02/19 13:50:29;;;;;;;8.10;2.90;;;;;;;;;;103867;1289;544811;-71
2024/02/19 13:54:07;;;;;;;7.40;2.70;;;;;;;;;;103591;1291;545471;-72
2024/02/19 13:57:45;;;;;;;6.60;2.30;;;;;;;;;;103686;1296;544951;-72
2024/02/19 14:01:21;;;;;;;7.10;3.00;;;;;;;;;;103598;1293;545891;-69
2024/02/19 14:05:00;;;;;;;6.70;3.00;;;;;;;;;;104130;1286;545019;-72
2024/02/19 14:08:39;;;;;;;7.20;3.00;;;;;;;;;;103653;1292;545407;-71
2024/02/19 14:12:14;;;;;;;6.70;2.80;;;;;;;;;;103806;1290;544981;-72
2024/02/19 14:15:52;;;;;;;6.50;2.60;;;;;;;;;;103665;1292;545448;-72
2024/02/19 14:19:29;;;;;;;5.50;2.00;;;;;;;;;;103522;1293;545584;-72
2024/02/19 14:23:07;;;;;;;3.20;1.20;;;;;;;;;;103708;1292;545307;-68
2024/02/19 14:26:44;;;;;;;5.80;2.00;;;;;;;;;;104006;1295;545530;-71
2024/02/19 14:30:22;;;;;;;5.00;1.30;;;;;;;;;;103679;1289;545203;-71
2024/02/19 14:33:55;;;;;;;3.60;1.40;;;;;;;;;;103738;1288;545397;-69
2024/02/19 14:37:38;;;;;;;2.90;1.10;;;;;;;;;;103427;1292;544817;-71
2024/02/19 14:41:14;;;;;;;1.60;0.70;;;;;;;;;;103752;1289;546024;-71
2024/02/19 14:44:52;;;;;;;2.80;1.10;;;;;;;;;;103432;1292;545047;-71
2024/02/19 14:48:29;;;;;;;4.40;1.80;;;;;;;;;;103516;1292;544769;-71
2024/02/19 14:52:06;;;;;;;4.50;1.60;;;;;;;;;;103598;1295;546174;-71
2024/02/19 14:55:43;;;;;;;4.80;1.60;;;;;;;;;;103652;1289;545113;-71
2024/02/19 14:59:21;;;;;;;4.70;1.60;;;;;;;;;;103535;1289;544918;-71
2024/02/19 15:02:59;;;;;;;8.40;2.60;;;;;;;;;;103782;1296;545380;-71
2024/02/19 15:06:36;;;;;;;4.60;1.80;;;;;;;;;;103797;1289;545512;-71
2024/02/19 15:10:09;;;;;;;4.80;2.10;;;;;;;;;;103776;1288;545046;-71
2024/02/19 15:13:51;;;;;;;23.70;10.60;;;;;;;;;;103455;1291;544807;-71
2024/02/19 15:17:29;;;;;;;22.80;9.70;;;;;;;;;;103725;1302;544848;-70
2024/02/19 15:21:06;;;;;;;56.40;25.10;;;;;;;;;;103814;1289;544941;-71
2024/02/19 15:24:43;;;;;;;30.10;12.50;;;;;;;;;;103650;1289;544718;-71
2024/02/19 15:28:21;;;;;;;6.40;2.30;;;;;;;;;;104158;1291;546164;-71
2024/02/19 15:31:59;;;;;;;11.90;4.90;;;;;;;;;;103898;1290;544820;-71
2024/02/19 15:35:33;;;;;;;19.00;9.90;;;;;;;;;;103653;1288;545403;-71
2024/02/19 15:39:14;;;;;;;11.60;3.90;;;;;;;;;;103848;1295;544723;-71
2024/02/19 15:42:52;;;;;;;9.50;3.30;;;;;;;;;;103647;1292;544843;-71
2024/02/19 15:46:28;;;;;;;9.60;3.80;;;;;;;;;;103655;1290;544844;-71
2024/02/19 15:50:06;;;;;;;5.70;1.60;;;;;;;;;;103901;1289;545593;-71
2024/02/19 15:53:43;;;;;;;6.20;1.80;;;;;;;;;;103766;1289;544988;-71
2024/02/19 15:57:21;;;;;;;5.80;2.20;;;;;;;;;;104129;1286;545593;-70
2024/02/19 16:00:57;;;;;;;8.20;3.20;;;;;;;;;;103837;1289;544982;-71
2024/02/19 16:04:36;;;;;;;7.70;3.80;;;;;;;;;;103721;1291;545004;-71
2024/02/19 16:08:31;;;;;;;6.90;2.60;;;;;;;;;;103785;1292;544937;-71
2024/02/19 16:11:52;;;;;;;7.20;2.70;;;;;;;;;;103592;1290;545018;-71
2024/02/19 16:15:28;;;;;;;7.40;3.20;;;;;;;;;;103666;1292;544965;-71
2024/02/19 16:19:04;;;;;;;8.70;4.90;;;;;;;;;;103658;1292;545513;-71
2024/02/19 16:22:43;;;;;;;9.50;5.10;;;;;;;;;;103848;1289;544994;-71
2024/02/19 16:26:19;;;;;;;6.10;2.50;;;;;;;;;;103814;1288;544925;-71
2024/02/19 16:29:54;;;;;;;10.70;5.90;;;;;;;;;;103524;1295;544931;-70
2024/02/19 16:33:35;;;;;;;8.50;3.40;;;;;;;;;;103859;1288;545391;-71
2024/02/19 16:37:12;;;;;;;16.40;10.20;;;;;;;;;;103632;1291;545371;-70
2024/02/19 16:40:52;;;;;;;10.40;4.70;;;;;;;;;;103764;1289;545004;-71
2024/02/19 16:44:29;;;;;;;17.10;8.90;;;;;;;;;;103622;1291;545981;-71
2024/02/19 16:48:11;;;;;;;8.90;3.80;;;;;;;;;;103619;1292;545251;-71
2024/02/19 16:51:43;;;;;;;14.60;7.20;;;;;;;;;;104245;1283;545286;-71
2024/02/19 16:55:20;;;;;;;24.70;15.50;;;;;;;;;;103861;1289;545072;-71
2024/02/19 16:58:57;;;;;;;28.40;17.20;;;;;;;;;;104527;1292;544866;-71
2024/02/19 17:02:35;;;;;;;22.40;12.70;;;;;;;;;;104605;1289;544939;-71
2024/02/19 17:06:12;;;;;;;18.70;11.50;;;;;;;;;;103805;1289;544871;-71
2024/02/19 17:09:47;;;;;;;24.10;13.10;;;;;;;;;;103802;1303;544760;-71
2024/02/19 17:13:27;;;;;;;51.40;27.40;;;;;;;;;;103694;1292;544997;-71
2024/02/19 17:17:05;;;;;;;37.00;16.70;;;;;;;;;;103803;1289;544708;-71
2024/02/19 17:20:38;;;;;;;25.40;13.90;;;;;;;;;;103776;1292;545367;-71
2024/02/19 17:24:20;;;;;;;35.80;23.90;;;;;;;;;;103701;1290;545216;-71
2024/02/19 17:28:19;;;;;;;29.80;17.50;;;;;;;;;;103678;1294;547960;-72
2024/02/19 17:31:35;;;;;;;32.40;16.10;;;;;;;;;;103675;1295;545217;-71
2024/02/19 17:35:13;;;;;;;32.20;16.20;;;;;;;;;;103839;1288;544786;-71
2024/02/19 17:38:50;;;;;;;19.20;11.10;;;;;;;;;;103620;1295;545136;-71
2024/02/19 17:42:27;;;;;;;24.80;13.60;;;;;;;;;;103953;1289;544879;-71
2024/02/19 17:46:06;;;;;;;15.00;8.10;;;;;;;;;;103730;1290;545046;-71
2024/02/19 17:49:42;;;;;;;31.50;18.90;;;;;;;;;;103813;1292;544948;-71
2024/02/19 17:53:16;;;;;;;25.60;13.90;;;;;;;;;;103877;1289;544761;-71
2024/02/19 17:57:00;;;;;;;46.90;26.40;;;;;;;;;;103598;1289;545707;-70
2024/02/19 18:00:35;;;;;;;23.30;14.40;;;;;;;;;;103792;1289;545767;-71
2024/02/19 18:04:12;;;;;;;12.70;6.80;;;;;;;;;;103743;1290;545023;-71
2024/02/19 18:07:50;;;;;;;21.10;14.40;;;;;;;;;;103648;1292;544977;-72
2024/02/19 18:11:26;;;;;;;10.00;6.40;;;;;;;;;;103779;1302;544775;-71
2024/02/19 18:15:05;;;;;;;13.80;7.90;;;;;;;;;;105606;1289;545024;-71
2024/02/19 18:18:38;;;;;;;11.50;7.00;;;;;;;;;;103696;1287;545594;-69
2024/02/19 18:22:19;;;;;;;10.30;5.60;;;;;;;;;;104133;1295;544905;-71
2024/02/19 18:25:57;;;;;;;11.30;7.10;;;;;;;;;;104258;1289;545060;-71
2024/02/19 18:29:35;;;;;;;9.80;5.90;;;;;;;;;;103739;1291;545785;-71
2024/02/19 18:33:08;;;;;;;22.50;9.30;;;;;;;;;;103557;1292;544817;-71
2024/02/19 18:36:54;;;;;;;27.30;11.00;;;;;;;;;;103680;1288;545241;-71
2024/02/19 18:40:27;;;;;;;12.80;4.70;;;;;;;;;;103725;1302;545884;-72
2024/02/19 18:44:05;;;;;;;24.10;13.60;;;;;;;;;;103716;1290;544966;-71
2024/02/19 18:47:42;;;;;;;15.00;7.60;;;;;;;;;;103694;1293;545120;-71
2024/02/19 18:51:19;;;;;;;14.40;10.70;;;;;;;;;;103449;1292;544722;-71
2024/02/19 18:54:53;;;;;;;9.90;4.30;;;;;;;;;;103566;1288;545502;-71
2024/02/19 18:58:34;;;;;;;12.30;4.10;;;;;;;;;;103857;1289;545467;-71
2024/02/19 19:02:08;;;;;;;16.10;9.20;;;;;;;;;;103716;1292;544756;-71
2024/02/19 19:05:49;;;;;;;11.10;6.50;;;;;;;;;;103681;1291;545003;-70
2024/02/19 19:09:26;;;;;;;18.40;14.00;;;;;;;;;;103613;1290;545683;-71
2024/02/19 19:13:04;;;;;;;33.90;25.40;;;;;;;;;;103891;1290;544722;-71
2024/02/19 19:16:41;;;;;;;13.90;7.60;;;;;;;;;;103383;1295;544865;-72
2024/02/19 19:20:19;;;;;;;15.30;5.60;;;;;;;;;;104465;1282;545363;-71
2024/02/19 19:23:56;;;;;;;11.60;4.50;;;;;;;;;;104693;1280;545094;-71
2024/02/19 19:27:34;;;;;;;6.80;2.20;;;;;;;;;;103689;1289;544943;-70
2024/02/19 19:31:12;;;;;;;11.20;2.90;;;;;;;;;;103619;1291;544746;-71
2024/02/19 19:34:49;;;;;;;13.20;4.10;;;;;;;;;;103932;1290;545043;-71
2024/02/19 19:38:26;;;;;;;6.50;2.10;;;;;;;;;;103724;1292;544983;-70
2024/02/19 19:42:00;;;;;;;7.30;2.30;;;;;;;;;;103737;1292;545140;-72
2024/02/19 19:45:41;;;;;;;6.50;1.70;;;;;;;;;;103729;1290;544866;-71
2024/02/19 19:49:19;;;;;;;7.40;2.50;;;;;;;;;;103615;1292;544804;-70
2024/02/19 19:52:54;;;;;;;9.20;4.50;;;;;;;;;;103775;1289;545864;-71
2024/02/19 19:56:34;;;;;;;6.10;2.10;;;;;;;;;;103870;1291;545009;-72
2024/02/19 20:00:11;;;;;;;4.40;1.40;;;;;;;;;;103634;1291;545450;-71
2024/02/19 20:03:49;;;;;;;6.00;2.30;;;;;;;;;;103878;1299;544705;-71
2024/02/19 20:07:25;;;;;;;5.10;1.60;;;;;;;;;;103850;1288;545722;-71
2024/02/19 20:11:04;;;;;;;2.30;0.80;;;;;;;;;;103825;1295;544960;-72
2024/02/19 20:14:41;;;;;;;4.20;1.50;;;;;;;;;;103653;1291;544907;-71
2024/02/19 20:18:21;;;;;;;5.30;1.90;;;;;;;;;;103984;1288;544748;-71
2024/02/19 20:21:56;;;;;;;5.00;1.60;;;;;;;;;;103668;1292;544938;-71
2024/02/19 20:25:33;;;;;;;4.90;1.60;;;;;;;;;;103831;1289;544988;-71
2024/02/19 20:29:11;;;;;;;3.90;1.50;;;;;;;;;;103722;1297;545053;-71
2024/02/19 20:32:49;;;;;;;5.60;1.60;;;;;;;;;;103837;1292;544915;-70
2024/02/19 20:36:26;;;;;;;3.80;1.30;;;;;;;;;;104172;1288;544694;-71
2024/02/19 20:40:05;;;;;;;5.80;1.80;;;;;;;;;;103832;1291;545537;-71
2024/02/19 20:43:41;;;;;;;5.20;2.20;;;;;;;;;;103787;1289;544971;-71
2024/02/19 20:47:39;;;;;;;4.60;2.00;;;;;;;;;;103668;1294;548401;-70
2024/02/19 20:50:56;;;;;;;3.90;1.30;;;;;;;;;;103589;1291;545040;-71
2024/02/19 20:54:33;;;;;;;4.50;1.60;;;;;;;;;;103788;1292;544984;-71